Time;durP1;ratioP1;P1;durP2;ratioP2;P2;SDS_P1;SDS_P2;PMS_P1;PMS_P2;Temp;Humidity;BMP_temperature;BMP_pressure;BME280_temperature;BME280_humidity;BME280_pressure;Samples;Min_cycle;Max_cycle;Signal;HPM_P1;HPM_P2
2022/03/12 00:01:36;;;;;;;10.60;8.20;;;4.60;77.40;;;;;;5078882;28;20470;-41
2022/03/12 00:04:05;;;;;;;12.13;8.80;;;4.60;78.70;;;;;;5079157;28;20443;-45
2022/03/12 00:06:32;;;;;;;10.50;7.70;;;4.20;80.40;;;;;;5079043;28;20464;-42
2022/03/12 00:09:00;;;;;;;12.80;7.90;;;4.00;80.90;;;;;;5079029;28;20903;-42
2022/03/12 00:11:34;;;;;;;16.37;8.20;;;3.90;81.80;;;;;;5078757;28;20458;-42
2022/03/12 00:14:03;;;;;;;11.00;8.70;;;3.70;82.70;;;;;;5079000;28;20565;-41
2022/03/12 00:16:31;;;;;;;12.20;8.47;;;3.60;83.90;;;;;;5078245;28;20488;-41
2022/03/12 00:19:01;;;;;;;14.07;8.50;;;3.80;84.20;;;;;;5078615;28;20452;-41
2022/03/12 00:21:30;;;;;;;12.70;7.70;;;3.90;83.80;;;;;;5079206;28;20871;-41
2022/03/12 00:23:58;;;;;;;11.77;8.10;;;3.90;81.40;;;;;;5079505;28;20459;-41
2022/03/12 00:26:29;;;;;;;10.77;7.70;;;4.00;82.50;;;;;;5077782;28;20997;-41
2022/03/12 00:28:56;;;;;;;13.97;8.47;;;4.10;82.40;;;;;;5078338;28;20444;-41
2022/03/12 00:31:25;;;;;;;13.03;8.60;;;4.00;80.80;;;;;;5078474;28;20865;-41
2022/03/12 00:33:52;;;;;;;11.03;7.47;;;4.00;82.10;;;;;;5079411;28;20534;-41
2022/03/12 00:36:20;;;;;;;13.03;9.00;;;4.20;81.60;;;;;;5078335;28;20879;-42
2022/03/12 00:38:47;;;;;;;11.07;8.23;;;4.30;80.70;;;;;;5079023;28;20482;-41
2022/03/12 00:41:14;;;;;;;10.37;8.00;;;4.30;80.50;;;;;;5078316;28;20490;-41
2022/03/12 00:43:42;;;;;;;14.47;9.13;;;4.40;80.40;;;;;;5078989;28;20479;-42
2022/03/12 00:46:10;;;;;;;13.07;8.80;;;4.40;79.80;;;;;;5078047;28;20459;-42
2022/03/12 00:48:38;;;;;;;15.13;9.03;;;4.30;80.20;;;;;;5078513;28;20447;-43
2022/03/12 00:51:05;;;;;;;12.20;7.07;;;4.10;80.50;;;;;;5078074;28;20477;-42
2022/03/12 00:53:32;;;;;;;11.60;7.77;;;4.20;80.40;;;;;;5078015;28;20475;-41
2022/03/12 00:55:59;;;;;;;14.40;8.07;;;4.30;78.70;;;;;;5140920;22;20514;-43
2022/03/12 00:58:26;;;;;;;14.03;7.70;;;4.40;78.70;;;;;;5093173;28;20467;-42
2022/03/12 01:00:55;;;;;;;9.47;7.90;;;4.30;79.30;;;;;;5092286;28;20504;-44
2022/03/12 01:03:22;;;;;;;13.93;7.70;;;4.20;80.80;;;;;;5092870;28;20986;-43
2022/03/12 01:05:59;;;;;;;12.10;8.00;;;4.20;81.10;;;;;;5092046;28;20505;-42
2022/03/12 01:08:27;;;;;;;12.00;8.23;;;4.10;81.70;;;;;;5092991;28;20470;-42
2022/03/12 01:10:57;;;;;;;12.00;8.03;;;4.00;80.90;;;;;;5092664;28;20867;-42
2022/03/12 01:13:25;;;;;;;12.43;7.10;;;4.00;81.50;;;;;;5093174;28;20474;-44
2022/03/12 01:15:52;;;;;;;8.90;7.63;;;3.70;81.80;;;;;;5092500;28;20469;-42
2022/03/12 01:18:22;;;;;;;13.53;8.10;;;3.50;82.00;;;;;;5092785;28;20521;-42
2022/03/12 01:20:50;;;;;;;9.03;7.93;;;3.60;82.40;;;;;;5092665;28;20505;-42
2022/03/12 01:23:18;;;;;;;9.90;7.67;;;3.80;83.00;;;;;;5092253;28;20475;-43
2022/03/12 01:25:47;;;;;;;12.20;8.20;;;3.90;82.30;;;;;;5091956;28;20544;-42
2022/03/12 01:28:16;;;;;;;10.03;7.43;;;3.70;80.80;;;;;;5092071;28;20527;-42
2022/03/12 01:30:43;;;;;;;11.03;8.67;;;3.30;81.20;;;;;;5092281;28;20988;-42
2022/03/12 01:33:11;;;;;;;14.33;8.33;;;3.00;84.10;;;;;;5092247;28;20525;-42
2022/03/12 01:35:40;;;;;;;12.50;8.00;;;2.80;86.00;;;;;;5092242;28;20493;-42
2022/03/12 01:38:08;;;;;;;12.40;8.10;;;2.70;87.50;;;;;;5092177;28;20478;-42
2022/03/12 01:40:35;;;;;;;11.70;7.93;;;2.90;87.20;;;;;;5091931;28;20953;-42
2022/03/12 01:43:03;;;;;;;12.97;8.10;;;3.20;84.60;;;;;;5092201;28;20537;-44
2022/03/12 01:45:29;;;;;;;9.47;7.70;;;3.30;84.60;;;;;;5091832;28;20499;-42
2022/03/12 01:47:58;;;;;;;13.27;8.40;;;3.30;84.10;;;;;;5092307;28;20970;-42
2022/03/12 01:50:28;;;;;;;12.00;9.07;;;3.40;84.70;;;;;;5091913;28;20473;-42
2022/03/12 01:53:00;;;;;;;10.90;7.27;;;3.40;84.20;;;;;;5092020;28;20449;-42
2022/03/12 01:55:30;;;;;;;12.50;7.87;;;3.30;82.80;;;;;;5092004;28;20508;-44
2022/03/12 01:57:58;;;;;;;11.60;8.27;;;3.40;82.10;;;;;;5091904;28;20474;-43
2022/03/12 02:00:30;;;;;;;13.33;7.67;;;3.40;82.40;;;;;;5091721;28;20541;-42
2022/03/12 02:02:59;;;;;;;11.00;7.53;;;3.30;83.90;;;;;;5092352;28;20451;-42
2022/03/12 02:05:27;;;;;;;12.23;8.30;;;3.00;84.80;;;;;;5091483;28;20458;-42
2022/03/12 02:07:59;;;;;;;11.37;7.50;;;3.10;84.90;;;;;;5091841;28;20817;-42
2022/03/12 02:10:26;;;;;;;12.63;7.70;;;3.20;84.50;;;;;;5091714;28;20452;-44
2022/03/12 02:12:54;;;;;;;9.40;7.30;;;3.10;84.80;;;;;;5091889;28;20534;-42
2022/03/12 02:15:22;;;;;;;13.30;8.13;;;3.20;85.20;;;;;;5091711;28;20462;-42
2022/03/12 02:17:50;;;;;;;12.73;8.97;;;3.10;84.50;;;;;;5091544;28;21008;-41
2022/03/12 02:20:18;;;;;;;12.47;7.60;;;3.00;85.00;;;;;;5091463;28;20944;-42
2022/03/12 02:22:51;;;;;;;16.07;10.80;;;3.00;84.60;;;;;;5091798;28;20942;-42
2022/03/12 02:25:25;;;;;;;13.67;9.03;;;3.10;85.00;;;;;;5091772;28;20472;-42
2022/03/12 02:27:52;;;;;;;13.00;8.93;;;3.20;84.60;;;;;;5091196;28;20460;-42
2022/03/12 02:30:20;;;;;;;10.00;8.00;;;3.30;84.80;;;;;;5091560;28;20516;-44
2022/03/12 02:32:47;;;;;;;11.77;8.67;;;3.20;83.90;;;;;;5091703;28;20448;-42
2022/03/12 02:35:17;;;;;;;13.43;7.80;;;3.30;83.10;;;;;;5091416;28;20884;-42
2022/03/12 02:37:48;;;;;;;12.40;8.80;;;3.30;82.80;;;;;;5091288;28;20489;-42
2022/03/12 02:40:15;;;;;;;9.43;7.40;;;3.40;82.60;;;;;;5091182;28;20999;-42
2022/03/12 02:42:44;;;;;;;12.57;7.47;;;3.20;82.90;;;;;;5091679;28;20466;-42
2022/03/12 02:45:11;;;;;;;9.00;7.10;;;3.20;82.80;;;;;;5091180;28;20496;-42
2022/03/12 02:47:42;;;;;;;7.80;7.00;;;3.00;84.10;;;;;;5091291;28;20484;-42
2022/03/12 02:50:11;;;;;;;10.03;7.40;;;2.90;84.20;;;;;;5091653;28;20524;-42
2022/03/12 02:52:41;;;;;;;10.67;7.30;;;3.00;84.60;;;;;;5091689;28;20471;-42
2022/03/12 02:55:12;;;;;;;9.27;6.63;;;2.90;84.00;;;;;;5091217;28;20540;-42
2022/03/12 02:57:40;;;;;;;10.67;7.53;;;3.10;84.30;;;;;;5091352;28;20485;-43
2022/03/12 03:00:10;;;;;;;9.00;6.60;;;3.20;83.80;;;;;;5091162;28;20482;-43
2022/03/12 03:02:40;;;;;;;10.80;7.00;;;3.00;83.80;;;;;;5091162;28;20442;-44
2022/03/12 03:05:14;;;;;;;14.20;7.20;;;3.00;84.70;;;;;;5091395;28;20530;-44
2022/03/12 03:07:41;;;;;;;9.33;6.93;;;2.70;86.70;;;;;;5091248;28;20475;-42
2022/03/12 03:10:10;;;;;;;12.13;7.20;;;2.60;87.00;;;;;;5090768;28;20497;-42
2022/03/12 03:12:38;;;;;;;12.33;7.13;;;2.70;87.20;;;;;;5091280;28;20449;-42
2022/03/12 03:15:06;;;;;;;11.60;7.50;;;2.80;87.30;;;;;;5091394;28;20536;-42
2022/03/12 03:17:37;;;;;;;10.57;6.27;;;2.80;86.90;;;;;;5091347;28;20568;-42
2022/03/12 03:20:05;;;;;;;10.10;7.77;;;3.10;85.70;;;;;;5090675;28;20870;-42
2022/03/12 03:22:31;;;;;;;8.50;6.83;;;3.10;84.90;;;;;;5090687;28;20475;-42
2022/03/12 03:24:58;;;;;;;10.40;7.47;;;2.90;85.40;;;;;;5090818;28;20475;-43
2022/03/12 03:27:25;;;;;;;14.40;8.37;;;3.00;85.20;;;;;;5090481;28;20474;-42
2022/03/12 03:29:53;;;;;;;9.57;7.10;;;2.80;84.80;;;;;;5091933;28;20478;-42
2022/03/12 03:32:20;;;;;;;10.10;7.30;;;2.60;85.60;;;;;;5094649;28;20456;-42
2022/03/12 03:34:48;;;;;;;12.53;7.87;;;2.40;87.00;;;;;;5094591;28;20491;-42
2022/03/12 03:37:16;;;;;;;9.87;6.67;;;2.40;87.70;;;;;;5094326;28;20566;-42
2022/03/12 03:39:43;;;;;;;14.90;6.77;;;2.50;87.00;;;;;;5094407;28;20473;-42
2022/03/12 03:42:10;;;;;;;11.17;7.63;;;2.40;87.10;;;;;;5094683;28;20473;-43
2022/03/12 03:44:37;;;;;;;13.17;6.87;;;2.50;87.90;;;;;;5094361;28;20451;-42
2022/03/12 03:47:04;;;;;;;9.93;6.77;;;2.70;88.00;;;;;;5094380;28;20512;-43
2022/03/12 03:49:31;;;;;;;12.93;7.70;;;2.90;87.40;;;;;;5094033;28;20485;-42
2022/03/12 03:51:59;;;;;;;9.63;6.70;;;3.10;86.80;;;;;;5094103;28;20765;-42
2022/03/12 03:54:28;;;;;;;12.37;6.93;;;3.10;86.00;;;;;;5094216;28;20445;-42
2022/03/12 03:56:55;;;;;;;10.80;6.43;;;3.10;86.20;;;;;;5094053;28;20509;-42
2022/03/12 03:59:22;;;;;;;11.77;6.73;;;3.20;85.50;;;;;;5094013;28;20482;-42
2022/03/12 04:01:50;;;;;;;9.73;6.60;;;3.30;85.10;;;;;;5093918;28;20883;-42
2022/03/12 04:04:18;;;;;;;12.10;6.80;;;3.30;83.70;;;;;;5094303;28;20443;-42
2022/03/12 04:06:44;;;;;;;11.43;6.70;;;3.30;83.50;;;;;;5093611;28;20983;-42
2022/03/12 04:09:13;;;;;;;10.17;6.50;;;3.30;85.30;;;;;;5094068;28;20817;-42
2022/03/12 04:11:42;;;;;;;9.93;7.53;;;3.10;84.80;;;;;;5094260;28;20481;-42
2022/03/12 04:14:09;;;;;;;11.47;7.40;;;2.80;84.80;;;;;;5093806;28;20447;-42
2022/03/12 04:16:37;;;;;;;12.90;7.53;;;2.70;85.50;;;;;;5093764;28;20463;-42
2022/03/12 04:19:07;;;;;;;13.70;7.17;;;2.70;85.50;;;;;;5093497;28;20715;-43
2022/03/12 04:21:34;;;;;;;8.27;6.63;;;2.90;84.80;;;;;;5093946;28;20448;-42
2022/03/12 04:24:02;;;;;;;12.20;7.33;;;3.00;84.40;;;;;;5093124;28;20453;-42
2022/03/12 04:26:34;;;;;;;10.60;6.70;;;3.30;83.20;;;;;;5092543;28;20549;-42
2022/03/12 04:29:01;;;;;;;12.50;8.83;;;3.40;82.30;;;;;;5092699;28;20848;-42
2022/03/12 04:31:28;;;;;;;13.33;7.67;;;3.20;84.70;;;;;;5093630;28;20473;-42
2022/03/12 04:33:55;;;;;;;9.97;6.53;;;3.30;85.40;;;;;;5093683;28;20515;-42
2022/03/12 04:36:22;;;;;;;10.23;7.57;;;3.20;85.20;;;;;;5093511;28;20550;-42
2022/03/12 04:38:49;;;;;;;11.33;7.17;;;3.20;85.70;;;;;;5093560;28;20560;-43
2022/03/12 04:41:19;;;;;;;10.20;7.80;;;3.20;85.80;;;;;;5093155;28;20453;-42
2022/03/12 04:43:48;;;;;;;10.13;7.00;;;3.00;86.10;;;;;;5093313;28;20938;-42
2022/03/12 04:46:15;;;;;;;7.80;6.30;;;2.80;86.50;;;;;;5093338;28;20501;-43
2022/03/12 04:48:43;;;;;;;8.90;6.00;;;2.80;87.50;;;;;;5093154;28;20528;-42
2022/03/12 04:51:10;;;;;;;7.90;5.70;;;2.70;86.70;;;;;;5093083;28;20873;-44
2022/03/12 04:53:38;;;;;;;10.00;6.20;;;2.90;85.40;;;;;;5093461;28;20836;-42
2022/03/12 04:56:05;;;;;;;9.77;6.80;;;3.00;84.30;;;;;;5092899;28;20477;-42
2022/03/12 04:58:32;;;;;;;6.67;5.80;;;2.90;84.20;;;;;;5093207;28;20579;-42
2022/03/12 05:01:01;;;;;;;9.77;6.30;;;2.80;85.20;;;;;;5092945;28;20480;-42
2022/03/12 05:03:28;;;;;;;10.00;6.97;;;2.50;84.90;;;;;;5092834;28;20477;-41
2022/03/12 05:05:55;;;;;;;6.77;6.03;;;2.40;86.50;;;;;;5092707;28;20501;-42
2022/03/12 05:08:25;;;;;;;13.13;7.20;;;2.40;87.40;;;;;;5092823;28;20498;-42
2022/03/12 05:10:54;;;;;;;10.27;6.43;;;2.50;88.30;;;;;;5092490;28;20480;-42
2022/03/12 05:13:24;;;;;;;10.53;7.00;;;2.70;87.70;;;;;;5092990;28;20501;-43
2022/03/12 05:15:52;;;;;;;6.10;5.30;;;2.70;87.10;;;;;;5092837;28;20545;-42
2022/03/12 05:18:21;;;;;;;11.83;6.40;;;2.50;87.60;;;;;;5092562;28;20489;-42
2022/03/12 05:20:49;;;;;;;9.70;6.30;;;2.40;87.50;;;;;;5092634;28;20445;-41
2022/03/12 05:23:17;;;;;;;8.63;5.47;;;2.50;88.20;;;;;;5092663;28;20469;-45
2022/03/12 05:25:47;;;;;;;14.30;6.93;;;2.70;88.00;;;;;;5092332;28;20466;-44
2022/03/12 05:28:16;;;;;;;11.07;8.80;;;2.70;85.90;;;;;;5091940;28;20464;-43
2022/03/12 05:30:45;;;;;;;7.40;6.03;;;2.50;85.70;;;;;;5092721;28;20478;-42
2022/03/12 05:33:12;;;;;;;16.43;9.63;;;2.50;86.10;;;;;;5092447;28;20476;-42
2022/03/12 05:35:42;;;;;;;21.93;14.90;;;2.60;86.80;;;;;;5092284;28;20492;-42
2022/03/12 05:38:11;;;;;;;84.73;46.17;;;2.60;86.30;;;;;;5092434;28;20468;-44
2022/03/12 05:40:39;;;;;;;109.60;56.73;;;2.50;86.10;;;;;;5092126;28;20457;-42
2022/03/12 05:43:10;;;;;;;326.90;156.80;;;2.50;86.70;;;;;;5092188;28;20444;-42
2022/03/12 05:45:38;;;;;;;325.07;146.33;;;2.40;86.20;;;;;;5091955;28;20463;-42
2022/03/12 05:48:06;;;;;;;134.23;65.80;;;2.40;86.60;;;;;;5092388;28;20655;-42
2022/03/12 05:50:33;;;;;;;50.37;24.57;;;2.40;87.00;;;;;;5092061;28;20452;-42
2022/03/12 05:53:02;;;;;;;23.00;15.37;;;2.40;88.20;;;;;;5091834;28;20489;-42
2022/03/12 05:55:29;;;;;;;23.40;13.83;;;2.30;88.90;;;;;;5091965;28;20522;-42
2022/03/12 05:57:56;;;;;;;20.63;13.00;;;1.90;89.30;;;;;;5091850;28;20559;-42
2022/03/12 06:00:23;;;;;;;12.27;8.23;;;1.40;90.00;;;;;;5091806;28;20805;-42
2022/03/12 06:02:51;;;;;;;9.70;7.40;;;1.30;90.30;;;;;;5092260;28;20474;-42
2022/03/12 06:05:19;;;;;;;11.63;8.07;;;1.40;90.20;;;;;;5091882;28;20469;-44
2022/03/12 06:07:46;;;;;;;12.63;6.87;;;1.40;90.40;;;;;;5092156;28;20846;-42
2022/03/12 06:10:16;;;;;;;9.53;6.90;;;1.40;90.30;;;;;;5091809;28;20441;-42
2022/03/12 06:12:43;;;;;;;9.80;6.47;;;1.60;90.40;;;;;;5092016;28;20479;-42
2022/03/12 06:15:12;;;;;;;11.70;6.20;;;1.80;90.40;;;;;;5091640;28;20536;-42
2022/03/12 06:17:39;;;;;;;10.50;6.93;;;1.90;89.70;;;;;;5091670;28;20512;-41
2022/03/12 06:20:08;;;;;;;12.20;8.70;;;2.00;89.00;;;;;;5091474;28;20559;-42
2022/03/12 06:22:35;;;;;;;11.30;7.43;;;1.90;89.00;;;;;;5091881;28;20452;-42
2022/03/12 06:25:02;;;;;;;9.60;5.87;;;2.20;89.80;;;;;;5091632;28;20473;-42
2022/03/12 06:27:30;;;;;;;9.90;6.23;;;2.30;89.20;;;;;;5090736;28;20445;-42
2022/03/12 06:29:57;;;;;;;10.30;6.40;;;2.40;89.10;;;;;;5091730;28;20467;-42
2022/03/12 06:32:24;;;;;;;11.30;6.97;;;2.60;89.20;;;;;;5091372;28;20452;-42
2022/03/12 06:34:51;;;;;;;10.80;6.30;;;2.60;89.20;;;;;;5091362;28;20946;-43
2022/03/12 06:37:18;;;;;;;12.63;6.30;;;2.30;88.60;;;;;;5091303;28;20509;-43
2022/03/12 06:39:45;;;;;;;9.27;7.60;;;2.40;90.10;;;;;;5091321;28;20563;-42
2022/03/12 06:42:12;;;;;;;16.93;12.77;;;2.50;89.40;;;;;;5091574;28;20476;-42
2022/03/12 06:44:42;;;;;;;21.30;10.27;;;2.60;89.80;;;;;;5091320;28;20980;-42
2022/03/12 06:47:09;;;;;;;7.97;6.17;;;2.70;89.30;;;;;;5091338;28;20513;-42
2022/03/12 06:49:37;;;;;;;12.03;6.97;;;2.80;88.00;;;;;;5090925;28;20444;-42
2022/03/12 06:52:05;;;;;;;9.47;7.67;;;2.70;86.70;;;;;;5091663;28;20452;-43
2022/03/12 06:54:32;;;;;;;10.30;8.00;;;2.70;87.20;;;;;;5091535;28;20498;-43
2022/03/12 06:57:00;;;;;;;11.37;9.50;;;2.50;87.50;;;;;;5114942;22;20517;-42
2022/03/12 06:59:27;;;;;;;14.67;8.90;;;2.60;88.40;;;;;;5090732;28;20483;-42
2022/03/12 07:01:55;;;;;;;9.90;8.73;;;2.70;87.60;;;;;;5090847;28;20809;-42
2022/03/12 07:04:22;;;;;;;10.33;7.67;;;2.80;86.30;;;;;;5091747;28;20969;-42
2022/03/12 07:06:49;;;;;;;8.30;6.97;;;2.80;85.70;;;;;;5094906;28;20503;-42
2022/03/12 07:09:16;;;;;;;8.80;6.70;;;3.00;86.40;;;;;;5094792;28;20970;-42
2022/03/12 07:11:43;;;;;;;11.23;6.20;;;2.90;86.00;;;;;;5095595;28;20484;-40
2022/03/12 07:14:11;;;;;;;8.93;6.23;;;2.90;86.10;;;;;;5095299;28;20472;-40
2022/03/12 07:16:38;;;;;;;7.13;5.47;;;2.80;85.30;;;;;;5095294;28;20492;-40
2022/03/12 07:19:06;;;;;;;7.40;6.13;;;2.80;85.50;;;;;;5095178;28;20500;-40
2022/03/12 07:21:33;;;;;;;13.43;6.77;;;2.70;86.00;;;;;;5094966;28;20958;-39
2022/03/12 07:24:00;;;;;;;8.80;5.97;;;2.70;87.50;;;;;;5094932;28;20488;-40
2022/03/12 07:26:27;;;;;;;10.37;6.10;;;2.60;87.30;;;;;;5094869;28;20488;-40
2022/03/12 07:28:53;;;;;;;9.50;6.27;;;2.50;87.90;;;;;;5095062;28;20463;-40
2022/03/12 07:31:21;;;;;;;11.33;6.77;;;2.50;89.00;;;;;;5094972;28;20472;-40
2022/03/12 07:33:48;;;;;;;9.67;6.10;;;2.50;88.80;;;;;;5094936;28;20447;-40
2022/03/12 07:36:16;;;;;;;9.10;6.27;;;2.40;88.90;;;;;;5094833;28;20892;-39
2022/03/12 07:38:43;;;;;;;9.20;5.90;;;2.40;89.80;;;;;;5094809;28;20889;-39
2022/03/12 07:41:12;;;;;;;10.10;6.57;;;2.60;90.40;;;;;;5094748;28;20807;-40
2022/03/12 07:43:39;;;;;;;10.30;6.83;;;2.70;89.20;;;;;;5094651;28;20820;-40
2022/03/12 07:46:06;;;;;;;7.50;5.37;;;2.70;88.30;;;;;;5094746;28;20852;-39
2022/03/12 07:48:33;;;;;;;8.67;6.07;;;2.80;87.70;;;;;;5094329;28;20472;-40
2022/03/12 07:51:01;;;;;;;8.13;5.63;;;2.90;87.40;;;;;;5094469;28;20449;-40
2022/03/12 07:53:30;;;;;;;9.90;5.90;;;3.00;87.20;;;;;;5094770;28;20537;-39
2022/03/12 07:55:57;;;;;;;7.40;5.90;;;3.00;87.50;;;;;;5094423;28;21080;-40
2022/03/12 07:58:27;;;;;;;9.73;6.47;;;3.00;87.10;;;;;;5094731;28;20446;-40
2022/03/12 08:00:56;;;;;;;7.57;5.90;;;2.80;88.00;;;;;;5092186;28;20453;-39
2022/03/12 08:03:24;;;;;;;6.60;5.17;;;2.90;88.00;;;;;;5094473;28;20786;-40
2022/03/12 08:05:51;;;;;;;8.20;5.40;;;2.90;87.10;;;;;;5094099;28;20465;-40
2022/03/12 08:08:18;;;;;;;11.20;6.30;;;3.00;86.80;;;;;;5094294;28;20439;-39
2022/03/12 08:13:30;;;;;;;10.97;8.90;;;3.30;87.60;;;;;;5094125;28;20428;-40
2022/03/12 08:15:59;;;;;;;11.40;9.20;;;3.40;90.00;;;;;;5093725;28;20541;-40
2022/03/12 08:18:26;;;;;;;10.77;8.50;;;3.40;90.50;;;;;;5093879;28;20957;-40
2022/03/12 08:20:53;;;;;;;10.40;7.43;;;3.60;90.50;;;;;;5093643;28;20483;-40
2022/03/12 08:23:20;;;;;;;12.17;8.10;;;3.60;90.40;;;;;;5093944;28;20448;-40
2022/03/12 08:25:49;;;;;;;9.57;7.60;;;3.60;90.30;;;;;;5093405;28;20927;-40
2022/03/12 08:28:18;;;;;;;8.23;7.40;;;3.80;91.00;;;;;;5093418;28;20923;-40
2022/03/12 08:30:46;;;;;;;14.30;10.10;;;3.90;90.00;;;;;;5093575;28;21019;-40
2022/03/12 08:33:13;;;;;;;15.57;10.47;;;3.90;91.00;;;;;;5094145;28;20541;-40
2022/03/12 08:35:40;;;;;;;14.20;11.47;;;3.70;90.70;;;;;;5093533;28;20489;-40
2022/03/12 08:38:07;;;;;;;13.40;12.00;;;3.70;90.30;;;;;;5093580;28;20478;-40
2022/03/12 08:40:35;;;;;;;14.53;10.30;;;3.70;91.40;;;;;;5093185;28;20485;-40
2022/03/12 08:43:04;;;;;;;13.43;9.60;;;3.70;90.80;;;;;;5093248;28;20454;-40
2022/03/12 08:45:31;;;;;;;12.17;9.30;;;3.70;91.10;;;;;;5093008;28;20475;-40
2022/03/12 08:47:58;;;;;;;13.43;9.90;;;3.90;91.40;;;;;;5093880;28;20447;-40
2022/03/12 08:50:25;;;;;;;10.00;8.73;;;4.10;91.00;;;;;;5093159;28;20857;-40
2022/03/12 08:52:53;;;;;;;9.23;7.60;;;4.30;90.00;;;;;;5093531;28;20447;-40
2022/03/12 08:55:20;;;;;;;14.60;8.17;;;4.40;89.50;;;;;;5093089;28;20466;-41
2022/03/12 08:57:47;;;;;;;9.93;7.80;;;4.60;89.30;;;;;;5093049;28;20524;-40
2022/03/12 09:00:16;;;;;;;9.00;6.90;;;4.70;89.20;;;;;;5093180;28;20502;-40
2022/03/12 09:02:44;;;;;;;13.07;8.10;;;4.80;89.40;;;;;;5092760;28;20486;-40
2022/03/12 09:05:13;;;;;;;41.37;36.93;;;4.90;88.50;;;;;;5092959;28;20745;-40
2022/03/12 09:07:40;;;;;;;23.47;17.23;;;5.00;87.40;;;;;;5093136;28;20494;-40
2022/03/12 09:10:10;;;;;;;13.90;10.37;;;5.10;88.40;;;;;;5092850;28;20475;-41
2022/03/12 09:12:37;;;;;;;18.97;8.93;;;5.20;87.30;;;;;;5091132;28;20439;-40
2022/03/12 09:15:06;;;;;;;16.07;8.07;;;5.30;86.50;;;;;;5090248;28;20511;-40
2022/03/12 09:17:34;;;;;;;9.67;7.00;;;5.40;83.80;;;;;;5090608;28;20589;-40
2022/03/12 09:20:01;;;;;;;9.10;6.80;;;5.40;82.30;;;;;;5091551;28;20537;-40
2022/03/12 09:22:28;;;;;;;11.27;7.87;;;5.40;81.90;;;;;;5091400;28;20475;-43
2022/03/12 09:24:55;;;;;;;11.60;7.23;;;5.50;81.30;;;;;;5092291;28;20475;-43
2022/03/12 09:27:22;;;;;;;12.47;7.77;;;5.60;80.30;;;;;;5090241;28;20494;-43
2022/03/12 09:29:50;;;;;;;12.47;8.53;;;5.70;80.20;;;;;;5090890;28;21074;-43
2022/03/12 09:32:17;;;;;;;10.23;7.43;;;5.70;79.50;;;;;;5089402;28;20497;-43
2022/03/12 09:34:45;;;;;;;14.93;8.10;;;5.80;78.90;;;;;;5086679;28;20451;-43
2022/03/12 09:37:12;;;;;;;15.20;7.90;;;6.00;83.30;;;;;;5090364;28;20505;-43
2022/03/12 09:39:39;;;;;;;11.03;7.10;;;6.20;81.70;;;;;;5091104;28;20558;-43
2022/03/12 09:42:09;;;;;;;9.40;7.37;;;6.30;82.20;;;;;;5090922;28;20524;-43
2022/03/12 09:44:36;;;;;;;11.47;6.63;;;6.40;77.50;;;;;;5091743;28;20478;-43
2022/03/12 09:47:04;;;;;;;10.83;7.57;;;6.50;76.00;;;;;;5091558;28;21022;-43
2022/03/12 09:49:33;;;;;;;11.37;6.77;;;6.60;72.90;;;;;;5091600;28;20476;-43
2022/03/12 09:52:01;;;;;;;8.87;7.97;;;6.80;72.20;;;;;;5089921;28;20446;-43
2022/03/12 09:54:29;;;;;;;8.40;7.13;;;6.90;72.10;;;;;;5089111;28;20471;-43
2022/03/12 09:56:56;;;;;;;9.20;6.90;;;7.10;70.40;;;;;;5073201;28;20571;-43
2022/03/12 09:59:23;;;;;;;9.90;7.20;;;7.10;72.10;;;;;;5086597;28;20558;-42
2022/03/12 10:01:50;;;;;;;9.00;8.00;;;7.10;70.70;;;;;;5089266;28;20471;-40
2022/03/12 10:04:17;;;;;;;14.03;8.87;;;7.20;71.40;;;;;;5090156;28;20449;-40
2022/03/12 10:06:44;;;;;;;13.53;7.00;;;7.30;67.60;;;;;;5090766;28;20494;-40
2022/03/12 10:09:13;;;;;;;13.30;8.47;;;7.30;66.70;;;;;;5091041;28;20996;-40
2022/03/12 10:11:41;;;;;;;14.40;8.40;;;7.40;69.50;;;;;;5091920;28;20524;-40
2022/03/12 10:14:08;;;;;;;125.67;17.67;;;7.60;69.70;;;;;;5092244;28;20447;-40
2022/03/12 10:16:35;;;;;;;76.93;11.53;;;7.80;70.10;;;;;;5090425;28;20495;-41
2022/03/12 10:19:03;;;;;;;70.90;13.53;;;8.00;70.10;;;;;;5089888;28;20915;-40
2022/03/12 10:21:32;;;;;;;58.60;12.37;;;8.20;70.50;;;;;;5090026;28;20479;-40
2022/03/12 10:23:59;;;;;;;41.57;12.00;;;8.30;70.70;;;;;;5090399;28;20539;-40
2022/03/12 10:26:28;;;;;;;18.70;8.40;;;8.40;71.40;;;;;;5090130;28;20972;-41
2022/03/12 10:28:55;;;;;;;47.63;11.97;;;8.50;70.20;;;;;;5089683;28;20474;-41
2022/03/12 10:31:22;;;;;;;51.70;11.20;;;8.80;72.10;;;;;;5089879;28;20521;-40
2022/03/12 10:33:49;;;;;;;44.73;10.10;;;8.90;68.30;;;;;;5090254;28;20440;-41
2022/03/12 10:36:17;;;;;;;19.80;7.70;;;9.10;68.60;;;;;;5089960;28;20554;-41
2022/03/12 10:38:46;;;;;;;21.83;8.63;;;9.30;66.50;;;;;;5090531;28;20471;-41
2022/03/12 10:41:14;;;;;;;24.07;9.40;;;9.30;69.50;;;;;;5095203;28;20562;-42
2022/03/12 10:43:47;;;;;;;12.70;7.70;;;9.40;64.70;;;;;;5095598;28;20439;-40
2022/03/12 10:46:21;;;;;;;11.90;8.30;;;9.50;62.40;;;;;;5095428;28;20491;-41
2022/03/12 10:48:51;;;;;;;20.17;8.53;;;9.50;65.30;;;;;;5095412;28;20447;-41
2022/03/12 10:51:19;;;;;;;14.43;7.80;;;9.70;67.20;;;;;;5095122;28;20820;-41
2022/03/12 10:53:48;;;;;;;24.70;9.40;;;9.70;63.40;;;;;;5095772;28;20526;-41
2022/03/12 10:56:15;;;;;;;29.90;9.20;;;9.70;64.10;;;;;;5095514;28;20470;-41
2022/03/12 10:58:42;;;;;;;14.47;8.03;;;9.90;66.20;;;;;;5095036;28;20928;-41
2022/03/12 11:01:11;;;;;;;55.43;11.20;;;10.00;68.20;;;;;;5094494;28;20565;-41
2022/03/12 11:03:38;;;;;;;47.13;9.53;;;10.20;69.50;;;;;;5095102;28;20486;-41
2022/03/12 11:06:07;;;;;;;10.13;6.20;;;11.60;80.70;;;;;;5094607;28;20561;-42
2022/03/12 11:08:35;;;;;;;13.07;6.20;;;12.80;71.80;;;;;;5095093;28;20469;-41
2022/03/12 11:11:09;;;;;;;20.27;7.50;;;13.30;73.30;;;;;;5094342;28;20509;-41
2022/03/12 11:13:39;;;;;;;12.20;7.40;;;13.90;74.60;;;;;;5095163;28;20447;-42
2022/03/12 11:16:20;;;;;;;20.97;7.47;;;14.30;65.20;;;;;;5095018;28;20467;-41
2022/03/12 11:19:00;;;;;;;12.60;6.10;;;15.00;73.00;;;;;;5095035;28;20471;-41
2022/03/12 11:21:33;;;;;;;12.90;8.17;;;15.90;68.30;;;;;;5093548;28;20474;-42
2022/03/12 11:24:00;;;;;;;26.87;9.43;;;16.30;59.80;;;;;;5092810;28;20486;-42
2022/03/12 11:26:29;;;;;;;44.77;9.43;;;15.70;55.70;;;;;;5093069;28;20525;-41
2022/03/12 11:28:58;;;;;;;69.30;12.40;;;14.90;56.00;;;;;;5092764;28;20445;-41
2022/03/12 11:31:44;;;;;;;15.30;7.87;;;14.40;54.90;;;;;;5092958;28;20448;-42
2022/03/12 11:34:20;;;;;;;12.73;8.40;;;14.00;53.90;;;;;;5093163;28;20475;-41
2022/03/12 11:36:59;;;;;;;13.90;8.27;;;13.60;55.20;;;;;;5093854;28;20463;-41
2022/03/12 11:39:29;;;;;;;13.50;8.70;;;13.20;54.90;;;;;;5092923;28;20501;-42
2022/03/12 11:42:06;;;;;;;18.03;8.57;;;12.90;55.30;;;;;;5093802;28;20451;-41
2022/03/12 11:44:34;;;;;;;14.73;8.50;;;12.70;57.10;;;;;;5094555;28;20461;-41
2022/03/12 11:47:03;;;;;;;12.73;8.47;;;12.60;56.50;;;;;;5094272;28;20546;-41
2022/03/12 11:49:32;;;;;;;18.40;9.30;;;12.50;57.80;;;;;;5093032;28;20450;-41
2022/03/12 11:52:00;;;;;;;12.03;7.93;;;12.30;56.50;;;;;;5092077;28;20447;-41
2022/03/12 11:54:27;;;;;;;11.53;8.43;;;12.30;55.80;;;;;;5092166;28;20492;-41
2022/03/12 11:56:54;;;;;;;13.33;9.17;;;12.20;60.40;;;;;;5091306;28;20499;-42
2022/03/12 11:59:21;;;;;;;10.00;8.10;;;12.20;53.80;;;;;;5092188;28;20482;-42
2022/03/12 12:02:02;;;;;;;12.93;8.33;;;12.20;54.80;;;;;;5091848;28;20586;-41
2022/03/12 12:04:32;;;;;;;13.33;8.77;;;11.90;54.60;;;;;;5092449;28;20443;-41
2022/03/12 12:07:00;;;;;;;16.27;9.17;;;12.10;56.40;;;;;;5092089;28;20901;-41
2022/03/12 12:09:27;;;;;;;14.00;9.13;;;12.10;57.10;;;;;;5093902;28;20444;-41
2022/03/12 12:11:54;;;;;;;13.40;8.40;;;12.10;58.40;;;;;;5093602;28;20451;-41
2022/03/12 12:14:23;;;;;;;11.80;7.97;;;12.10;57.70;;;;;;5093991;28;20469;-42
2022/03/12 12:16:50;;;;;;;23.93;10.13;;;12.20;55.90;;;;;;5093393;28;20459;-41
2022/03/12 12:19:17;;;;;;;16.43;9.80;;;12.20;54.00;;;;;;5092456;28;20467;-41
2022/03/12 12:21:45;;;;;;;30.50;22.30;;;12.20;54.60;;;;;;5092592;28;20482;-41
2022/03/12 12:24:26;;;;;;;646.97;101.93;;;12.20;56.80;;;;;;5093028;28;20535;-41
2022/03/12 12:26:58;;;;;;;33.40;10.20;;;12.50;54.50;;;;;;5092596;28;20483;-41
2022/03/12 12:29:44;;;;;;;20.13;9.20;;;12.50;53.60;;;;;;5093286;28;20439;-41
2022/03/12 12:32:13;;;;;;;11.57;7.03;;;12.50;53.40;;;;;;5092369;28;20471;-41
2022/03/12 12:34:59;;;;;;;17.83;9.33;;;12.40;53.80;;;;;;5076097;28;20523;-42
2022/03/12 12:40:32;;;;;;;12.07;6.90;;;12.60;52.60;;;;;;5150219;27;20601;-41
2022/03/12 12:43:02;;;;;;;131.67;20.03;;;13.10;56.30;;;;;;5148705;27;20531;-41
2022/03/12 12:45:32;;;;;;;11.70;7.00;;;13.40;57.60;;;;;;5136856;27;20445;-40
2022/03/12 12:48:11;;;;;;;24.73;9.10;;;13.50;55.60;;;;;;5107418;28;20963;-41
2022/03/12 12:50:38;;;;;;;11.43;6.97;;;13.80;60.20;;;;;;5107171;28;20475;-41
2022/03/12 12:53:15;;;;;;;9.80;6.70;;;14.10;61.70;;;;;;5107526;28;20499;-40
2022/03/12 12:55:49;;;;;;;17.77;6.30;;;14.00;55.40;;;;;;5107551;28;20962;-46
2022/03/12 12:58:16;;;;;;;21.50;8.13;;;14.30;58.20;;;;;;5108883;28;21030;-42